sensor_id;sensor_type;location;lat;lon;timestamp;temperature;humidity
38020;DHT22;23829;51.350;17.286;2023-09-12T00:00:57;30.60;42.70
38020;DHT22;23829;51.350;17.286;2023-09-12T00:03:35;30.60;42.60
38020;DHT22;23829;51.350;17.286;2023-09-12T00:06:02;30.60;42.70
38020;DHT22;23829;51.350;17.286;2023-09-12T00:08:30;30.60;42.50
38020;DHT22;23829;51.350;17.286;2023-09-12T00:11:04;30.40;42.80
38020;DHT22;23829;51.350;17.286;2023-09-12T00:13:31;30.40;42.90
38020;DHT22;23829;51.350;17.286;2023-09-12T00:15:57;30.50;42.70
38020;DHT22;23829;51.350;17.286;2023-09-12T00:18:24;30.40;42.80
38020;DHT22;23829;51.350;17.286;2023-09-12T00:20:51;30.30;43.00
38020;DHT22;23829;51.350;17.286;2023-09-12T00:23:22;30.20;43.20
38020;DHT22;23829;51.350;17.286;2023-09-12T00:25:50;30.10;43.20
38020;DHT22;23829;51.350;17.286;2023-09-12T00:28:18;30.20;43.50
38020;DHT22;23829;51.350;17.286;2023-09-12T00:30:45;30.30;43.30
38020;DHT22;23829;51.350;17.286;2023-09-12T00:33:11;30.50;43.10
38020;DHT22;23829;51.350;17.286;2023-09-12T00:35:38;30.40;42.80
38020;DHT22;23829;51.350;17.286;2023-09-12T00:38:04;30.30;43.20
38020;DHT22;23829;51.350;17.286;2023-09-12T00:40:33;30.20;43.30
38020;DHT22;23829;51.350;17.286;2023-09-12T00:42:59;30.10;43.50
38020;DHT22;23829;51.350;17.286;2023-09-12T00:45:26;30.10;43.60
38020;DHT22;23829;51.350;17.286;2023-09-12T00:47:52;30.10;43.50
38020;DHT22;23829;51.350;17.286;2023-09-12T00:50:21;30.20;43.60
38020;DHT22;23829;51.350;17.286;2023-09-12T00:52:49;30.30;43.50
38020;DHT22;23829;51.350;17.286;2023-09-12T00:55:16;30.30;43.30
38020;DHT22;23829;51.350;17.286;2023-09-12T00:57:43;30.30;43.50
38020;DHT22;23829;51.350;17.286;2023-09-12T01:00:13;30.30;43.50
38020;DHT22;23829;51.350;17.286;2023-09-12T01:02:41;30.40;43.20
38020;DHT22;23829;51.350;17.286;2023-09-12T01:05:09;30.50;43.10
38020;DHT22;23829;51.350;17.286;2023-09-12T01:07:37;30.50;42.90
38020;DHT22;23829;51.350;17.286;2023-09-12T01:10:05;30.50;43.00
38020;DHT22;23829;51.350;17.286;2023-09-12T01:12:31;30.30;43.30
38020;DHT22;23829;51.350;17.286;2023-09-12T01:14:58;30.30;43.40
38020;DHT22;23829;51.350;17.286;2023-09-12T01:17:25;30.40;43.20
38020;DHT22;23829;51.350;17.286;2023-09-12T01:19:52;30.40;43.00
38020;DHT22;23829;51.350;17.286;2023-09-12T01:22:46;30.50;42.90
38020;DHT22;23829;51.350;17.286;2023-09-12T01:27:58;30.50;42.70
38020;DHT22;23829;51.350;17.286;2023-09-12T01:30:28;30.50;42.90
38020;DHT22;23829;51.350;17.286;2023-09-12T01:32:54;30.40;43.10
38020;DHT22;23829;51.350;17.286;2023-09-12T01:35:21;30.40;43.20
38020;DHT22;23829;51.350;17.286;2023-09-12T01:37:47;30.40;43.20
38020;DHT22;23829;51.350;17.286;2023-09-12T01:40:14;30.50;43.90
38020;DHT22;23829;51.350;17.286;2023-09-12T01:42:46;30.40;43.30
38020;DHT22;23829;51.350;17.286;2023-09-12T01:45:17;30.40;43.20
38020;DHT22;23829;51.350;17.286;2023-09-12T01:47:46;30.30;43.40
38020;DHT22;23829;51.350;17.286;2023-09-12T01:50:16;30.20;43.40
38020;DHT22;23829;51.350;17.286;2023-09-12T01:52:43;30.00;43.70
38020;DHT22;23829;51.350;17.286;2023-09-12T01:55:10;30.00;43.80
38020;DHT22;23829;51.350;17.286;2023-09-12T01:57:37;29.80;44.30
38020;DHT22;23829;51.350;17.286;2023-09-12T02:00:05;30.00;44.10
38020;DHT22;23829;51.350;17.286;2023-09-12T02:02:31;30.20;43.90
38020;DHT22;23829;51.350;17.286;2023-09-12T02:05:07;30.20;43.80
38020;DHT22;23829;51.350;17.286;2023-09-12T02:07:38;30.10;43.90
38020;DHT22;23829;51.350;17.286;2023-09-12T02:10:05;30.00;43.90
38020;DHT22;23829;51.350;17.286;2023-09-12T02:12:32;30.00;44.00
38020;DHT22;23829;51.350;17.286;2023-09-12T02:14:58;30.20;43.90
38020;DHT22;23829;51.350;17.286;2023-09-12T02:17:25;30.20;43.70
38020;DHT22;23829;51.350;17.286;2023-09-12T02:19:51;30.20;43.60
38020;DHT22;23829;51.350;17.286;2023-09-12T02:22:17;30.00;43.70
38020;DHT22;23829;51.350;17.286;2023-09-12T02:24:43;29.90;44.30
38020;DHT22;23829;51.350;17.286;2023-09-12T02:27:10;29.90;44.20
38020;DHT22;23829;51.350;17.286;2023-09-12T02:29:41;29.80;44.40
38020;DHT22;23829;51.350;17.286;2023-09-12T02:32:08;29.60;44.90
38020;DHT22;23829;51.350;17.286;2023-09-12T02:34:34;29.60;44.70
38020;DHT22;23829;51.350;17.286;2023-09-12T02:37:01;29.60;44.70
38020;DHT22;23829;51.350;17.286;2023-09-12T02:39:27;29.60;45.00
38020;DHT22;23829;51.350;17.286;2023-09-12T02:41:53;29.70;45.00
38020;DHT22;23829;51.350;17.286;2023-09-12T02:44:20;29.50;45.00
38020;DHT22;23829;51.350;17.286;2023-09-12T02:46:46;29.40;45.40
38020;DHT22;23829;51.350;17.286;2023-09-12T02:49:15;29.40;45.60
38020;DHT22;23829;51.350;17.286;2023-09-12T02:51:41;29.50;45.40
38020;DHT22;23829;51.350;17.286;2023-09-12T02:54:08;29.50;45.20
38020;DHT22;23829;51.350;17.286;2023-09-12T02:56:34;29.70;45.10
38020;DHT22;23829;51.350;17.286;2023-09-12T02:59:00;29.70;45.00
38020;DHT22;23829;51.350;17.286;2023-09-12T03:01:26;29.50;45.30
38020;DHT22;23829;51.350;17.286;2023-09-12T03:03:58;29.50;45.40
38020;DHT22;23829;51.350;17.286;2023-09-12T03:06:24;29.40;45.40
38020;DHT22;23829;51.350;17.286;2023-09-12T03:08:51;29.50;45.40
38020;DHT22;23829;51.350;17.286;2023-09-12T03:11:17;29.60;45.20
38020;DHT22;23829;51.350;17.286;2023-09-12T03:13:43;29.60;45.10
38020;DHT22;23829;51.350;17.286;2023-09-12T03:16:13;29.60;44.90
38020;DHT22;23829;51.350;17.286;2023-09-12T03:18:40;29.50;45.10
38020;DHT22;23829;51.350;17.286;2023-09-12T03:21:07;29.20;45.70
38020;DHT22;23829;51.350;17.286;2023-09-12T03:23:33;29.30;45.60
38020;DHT22;23829;51.350;17.286;2023-09-12T03:26:02;29.50;45.50
38020;DHT22;23829;51.350;17.286;2023-09-12T03:28:30;29.40;45.90
38020;DHT22;23829;51.350;17.286;2023-09-12T03:31:07;29.20;45.70
38020;DHT22;23829;51.350;17.286;2023-09-12T03:33:34;28.90;46.40
38020;DHT22;23829;51.350;17.286;2023-09-12T03:36:04;28.70;47.10
38020;DHT22;23829;51.350;17.286;2023-09-12T03:38:31;28.70;47.00
38020;DHT22;23829;51.350;17.286;2023-09-12T03:40:57;28.60;47.30
38020;DHT22;23829;51.350;17.286;2023-09-12T03:43:24;28.50;47.70
38020;DHT22;23829;51.350;17.286;2023-09-12T03:45:51;28.30;48.20
38020;DHT22;23829;51.350;17.286;2023-09-12T03:48:18;28.40;48.10
38020;DHT22;23829;51.350;17.286;2023-09-12T03:50:45;28.50;47.80
38020;DHT22;23829;51.350;17.286;2023-09-12T03:53:14;28.50;47.90
38020;DHT22;23829;51.350;17.286;2023-09-12T03:55:40;28.80;47.40
38020;DHT22;23829;51.350;17.286;2023-09-12T03:58:07;28.70;47.50
38020;DHT22;23829;51.350;17.286;2023-09-12T04:00:33;29.10;47.00
38020;DHT22;23829;51.350;17.286;2023-09-12T04:02:59;29.30;46.40
38020;DHT22;23829;51.350;17.286;2023-09-12T04:05:26;29.50;45.90
38020;DHT22;23829;51.350;17.286;2023-09-12T04:07:53;29.40;46.00
38020;DHT22;23829;51.350;17.286;2023-09-12T04:10:20;29.30;46.10
38020;DHT22;23829;51.350;17.286;2023-09-12T04:12:47;29.40;46.10
38020;DHT22;23829;51.350;17.286;2023-09-12T04:15:13;29.50;46.00
38020;DHT22;23829;51.350;17.286;2023-09-12T04:17:39;29.40;45.70
38020;DHT22;23829;51.350;17.286;2023-09-12T04:20:06;29.40;45.80
38020;DHT22;23829;51.350;17.286;2023-09-12T04:22:33;29.50;45.90
38020;DHT22;23829;51.350;17.286;2023-09-12T04:25:00;29.60;45.50
38020;DHT22;23829;51.350;17.286;2023-09-12T04:27:27;29.50;45.60
38020;DHT22;23829;51.350;17.286;2023-09-12T04:29:53;29.70;45.40
38020;DHT22;23829;51.350;17.286;2023-09-12T04:32:20;29.60;45.10
38020;DHT22;23829;51.350;17.286;2023-09-12T04:34:50;29.50;45.50
38020;DHT22;23829;51.350;17.286;2023-09-12T04:37:17;29.60;45.70
38020;DHT22;23829;51.350;17.286;2023-09-12T04:39:44;29.80;45.30
38020;DHT22;23829;51.350;17.286;2023-09-12T04:42:11;30.00;44.90
38020;DHT22;23829;51.350;17.286;2023-09-12T04:44:39;30.10;44.50
38020;DHT22;23829;51.350;17.286;2023-09-12T04:47:06;30.10;44.50
38020;DHT22;23829;51.350;17.286;2023-09-12T04:49:32;30.20;44.60
38020;DHT22;23829;51.350;17.286;2023-09-12T04:51:59;30.20;44.40
38020;DHT22;23829;51.350;17.286;2023-09-12T04:54:25;30.30;44.10
38020;DHT22;23829;51.350;17.286;2023-09-12T04:56:51;30.40;44.00
38020;DHT22;23829;51.350;17.286;2023-09-12T04:59:17;30.50;43.90
38020;DHT22;23829;51.350;17.286;2023-09-12T05:01:44;30.50;43.90
38020;DHT22;23829;51.350;17.286;2023-09-12T05:04:10;30.40;43.90
38020;DHT22;23829;51.350;17.286;2023-09-12T05:06:37;30.30;44.10
38020;DHT22;23829;51.350;17.286;2023-09-12T05:09:03;30.10;44.50
38020;DHT22;23829;51.350;17.286;2023-09-12T05:11:31;29.90;45.10
38020;DHT22;23829;51.350;17.286;2023-09-12T05:13:57;29.90;45.10
38020;DHT22;23829;51.350;17.286;2023-09-12T05:16:24;29.90;45.50
38020;DHT22;23829;51.350;17.286;2023-09-12T05:18:50;29.90;45.30
38020;DHT22;23829;51.350;17.286;2023-09-12T05:21:17;30.00;45.40
38020;DHT22;23829;51.350;17.286;2023-09-12T05:23:43;30.20;45.60
38020;DHT22;23829;51.350;17.286;2023-09-12T05:26:10;30.30;45.40
38020;DHT22;23829;51.350;17.286;2023-09-12T05:28:36;30.40;45.60
38020;DHT22;23829;51.350;17.286;2023-09-12T05:31:03;30.60;45.20
38020;DHT22;23829;51.350;17.286;2023-09-12T05:33:30;30.70;45.10
38020;DHT22;23829;51.350;17.286;2023-09-12T05:35:57;30.80;45.00
38020;DHT22;23829;51.350;17.286;2023-09-12T05:38:23;30.80;44.80
38020;DHT22;23829;51.350;17.286;2023-09-12T05:40:50;30.90;45.10
38020;DHT22;23829;51.350;17.286;2023-09-12T05:43:16;31.00;44.90
38020;DHT22;23829;51.350;17.286;2023-09-12T05:45:44;31.00;44.80
38020;DHT22;23829;51.350;17.286;2023-09-12T05:48:10;31.10;44.80
38020;DHT22;23829;51.350;17.286;2023-09-12T05:50:37;31.00;44.70
38020;DHT22;23829;51.350;17.286;2023-09-12T05:53:04;31.00;44.90
38020;DHT22;23829;51.350;17.286;2023-09-12T05:55:30;31.00;45.20
38020;DHT22;23829;51.350;17.286;2023-09-12T05:57:56;30.90;45.40
38020;DHT22;23829;51.350;17.286;2023-09-12T06:00:23;30.80;45.40
38020;DHT22;23829;51.350;17.286;2023-09-12T06:02:49;30.90;45.70
38020;DHT22;23829;51.350;17.286;2023-09-12T06:05:16;30.80;45.70
38020;DHT22;23829;51.350;17.286;2023-09-12T06:07:42;30.60;46.30
38020;DHT22;23829;51.350;17.286;2023-09-12T06:10:09;30.60;46.50
38020;DHT22;23829;51.350;17.286;2023-09-12T06:12:35;30.50;46.60
38020;DHT22;23829;51.350;17.286;2023-09-12T06:15:05;30.60;46.90
38020;DHT22;23829;51.350;17.286;2023-09-12T06:17:32;30.50;47.30
38020;DHT22;23829;51.350;17.286;2023-09-12T06:19:58;30.50;47.20
38020;DHT22;23829;51.350;17.286;2023-09-12T06:22:25;30.50;47.50
38020;DHT22;23829;51.350;17.286;2023-09-12T06:24:52;30.50;47.60
38020;DHT22;23829;51.350;17.286;2023-09-12T06:27:18;30.50;47.70
38020;DHT22;23829;51.350;17.286;2023-09-12T06:29:48;30.60;47.80
38020;DHT22;23829;51.350;17.286;2023-09-12T06:32:15;30.80;47.60
38020;DHT22;23829;51.350;17.286;2023-09-12T06:34:42;31.00;47.20
38020;DHT22;23829;51.350;17.286;2023-09-12T06:37:10;30.90;47.40
38020;DHT22;23829;51.350;17.286;2023-09-12T06:39:37;30.80;47.70
38020;DHT22;23829;51.350;17.286;2023-09-12T06:42:03;30.80;48.00
38020;DHT22;23829;51.350;17.286;2023-09-12T06:44:30;30.80;48.10
38020;DHT22;23829;51.350;17.286;2023-09-12T06:46:56;31.00;47.90
38020;DHT22;23829;51.350;17.286;2023-09-12T06:49:22;31.10;47.90
38020;DHT22;23829;51.350;17.286;2023-09-12T06:51:48;31.30;47.80
38020;DHT22;23829;51.350;17.286;2023-09-12T06:54:15;31.30;47.70
38020;DHT22;23829;51.350;17.286;2023-09-12T06:56:41;31.30;47.80
38020;DHT22;23829;51.350;17.286;2023-09-12T06:59:09;31.40;47.70
38020;DHT22;23829;51.350;17.286;2023-09-12T07:01:35;31.60;47.40
38020;DHT22;23829;51.350;17.286;2023-09-12T07:04:01;31.90;47.20
38020;DHT22;23829;51.350;17.286;2023-09-12T07:06:31;32.00;47.00
38020;DHT22;23829;51.350;17.286;2023-09-12T07:08:58;32.00;47.00
38020;DHT22;23829;51.350;17.286;2023-09-12T07:11:25;32.10;46.90
38020;DHT22;23829;51.350;17.286;2023-09-12T07:13:51;32.10;46.90
38020;DHT22;23829;51.350;17.286;2023-09-12T07:16:17;32.10;47.20
38020;DHT22;23829;51.350;17.286;2023-09-12T07:18:44;32.30;47.20
38020;DHT22;23829;51.350;17.286;2023-09-12T07:21:10;32.40;46.90
38020;DHT22;23829;51.350;17.286;2023-09-12T07:23:38;32.60;46.80
38020;DHT22;23829;51.350;17.286;2023-09-12T07:26:04;32.70;46.40
38020;DHT22;23829;51.350;17.286;2023-09-12T07:28:31;32.90;46.30
38020;DHT22;23829;51.350;17.286;2023-09-12T07:30:58;33.00;45.90
38020;DHT22;23829;51.350;17.286;2023-09-12T07:33:24;33.10;45.90
38020;DHT22;23829;51.350;17.286;2023-09-12T07:35:53;33.30;45.80
38020;DHT22;23829;51.350;17.286;2023-09-12T07:38:20;33.30;45.70
38020;DHT22;23829;51.350;17.286;2023-09-12T07:40:47;33.40;45.60
38020;DHT22;23829;51.350;17.286;2023-09-12T07:43:14;33.60;45.60
38020;DHT22;23829;51.350;17.286;2023-09-12T07:45:40;33.70;45.30
38020;DHT22;23829;51.350;17.286;2023-09-12T07:48:10;33.70;45.30
38020;DHT22;23829;51.350;17.286;2023-09-12T07:50:39;33.80;45.00
38020;DHT22;23829;51.350;17.286;2023-09-12T07:53:06;33.90;44.90
38020;DHT22;23829;51.350;17.286;2023-09-12T07:55:39;34.00;44.80
38020;DHT22;23829;51.350;17.286;2023-09-12T07:58:16;34.00;45.00
38020;DHT22;23829;51.350;17.286;2023-09-12T08:00:44;34.20;44.60
38020;DHT22;23829;51.350;17.286;2023-09-12T08:03:11;34.20;44.60
38020;DHT22;23829;51.350;17.286;2023-09-12T08:05:37;34.30;44.40
38020;DHT22;23829;51.350;17.286;2023-09-12T08:08:04;34.30;44.50
38020;DHT22;23829;51.350;17.286;2023-09-12T08:10:30;34.50;44.20
38020;DHT22;23829;51.350;17.286;2023-09-12T08:12:57;34.50;44.10
38020;DHT22;23829;51.350;17.286;2023-09-12T08:15:23;34.80;43.10
38020;DHT22;23829;51.350;17.286;2023-09-12T08:17:50;34.80;43.30
38020;DHT22;23829;51.350;17.286;2023-09-12T08:20:19;34.90;42.90
38020;DHT22;23829;51.350;17.286;2023-09-12T08:22:46;34.80;42.70
38020;DHT22;23829;51.350;17.286;2023-09-12T08:25:12;35.00;41.50
38020;DHT22;23829;51.350;17.286;2023-09-12T08:27:40;35.20;42.50
38020;DHT22;23829;51.350;17.286;2023-09-12T08:30:08;35.20;42.50
38020;DHT22;23829;51.350;17.286;2023-09-12T08:32:35;35.30;41.90
38020;DHT22;23829;51.350;17.286;2023-09-12T08:35:01;35.50;42.10
38020;DHT22;23829;51.350;17.286;2023-09-12T08:37:29;35.40;42.20
38020;DHT22;23829;51.350;17.286;2023-09-12T08:39:56;35.50;42.00
38020;DHT22;23829;51.350;17.286;2023-09-12T08:42:26;35.60;41.90
38020;DHT22;23829;51.350;17.286;2023-09-12T08:44:56;35.50;41.70
38020;DHT22;23829;51.350;17.286;2023-09-12T08:47:23;35.50;42.30
38020;DHT22;23829;51.350;17.286;2023-09-12T08:49:51;35.70;41.60
38020;DHT22;23829;51.350;17.286;2023-09-12T08:52:17;35.90;41.50
38020;DHT22;23829;51.350;17.286;2023-09-12T08:54:43;36.00;41.10
38020;DHT22;23829;51.350;17.286;2023-09-12T08:57:11;36.00;41.00
38020;DHT22;23829;51.350;17.286;2023-09-12T08:59:38;35.90;40.10
38020;DHT22;23829;51.350;17.286;2023-09-12T09:02:08;36.00;40.60
38020;DHT22;23829;51.350;17.286;2023-09-12T09:04:35;36.20;40.60
38020;DHT22;23829;51.350;17.286;2023-09-12T09:07:03;36.10;40.40
38020;DHT22;23829;51.350;17.286;2023-09-12T09:09:30;36.10;40.60
38020;DHT22;23829;51.350;17.286;2023-09-12T09:11:57;36.40;39.40
38020;DHT22;23829;51.350;17.286;2023-09-12T09:14:23;36.50;39.40
38020;DHT22;23829;51.350;17.286;2023-09-12T09:16:50;36.50;39.20
38020;DHT22;23829;51.350;17.286;2023-09-12T09:19:16;36.50;39.30
38020;DHT22;23829;51.350;17.286;2023-09-12T09:21:44;36.60;39.10
38020;DHT22;23829;51.350;17.286;2023-09-12T09:24:13;36.60;38.80
38020;DHT22;23829;51.350;17.286;2023-09-12T09:29:17;36.80;37.20
38020;DHT22;23829;51.350;17.286;2023-09-12T09:31:46;36.70;36.80
38020;DHT22;23829;51.350;17.286;2023-09-12T09:34:22;36.80;37.30
38020;DHT22;23829;51.350;17.286;2023-09-12T09:36:52;36.60;37.70
38020;DHT22;23829;51.350;17.286;2023-09-12T09:39:23;36.70;36.40
38020;DHT22;23829;51.350;17.286;2023-09-12T09:41:52;37.10;36.60
38020;DHT22;23829;51.350;17.286;2023-09-12T09:44:18;37.10;36.60
38020;DHT22;23829;51.350;17.286;2023-09-12T09:46:50;37.20;36.80
38020;DHT22;23829;51.350;17.286;2023-09-12T09:49:19;37.10;34.90
38020;DHT22;23829;51.350;17.286;2023-09-12T09:51:46;37.20;35.30
38020;DHT22;23829;51.350;17.286;2023-09-12T09:54:14;37.40;34.60
38020;DHT22;23829;51.350;17.286;2023-09-12T09:56:48;37.50;35.30
38020;DHT22;23829;51.350;17.286;2023-09-12T09:59:22;37.40;35.30
38020;DHT22;23829;51.350;17.286;2023-09-12T10:01:51;37.40;35.50
38020;DHT22;23829;51.350;17.286;2023-09-12T10:04:19;37.10;36.20
38020;DHT22;23829;51.350;17.286;2023-09-12T10:06:46;37.10;35.70
38020;DHT22;23829;51.350;17.286;2023-09-12T10:09:14;37.20;35.40
38020;DHT22;23829;51.350;17.286;2023-09-12T10:11:42;37.40;35.20
38020;DHT22;23829;51.350;17.286;2023-09-12T10:14:09;37.40;35.30
38020;DHT22;23829;51.350;17.286;2023-09-12T10:16:41;37.40;34.90
38020;DHT22;23829;51.350;17.286;2023-09-12T10:19:16;37.70;31.40
38020;DHT22;23829;51.350;17.286;2023-09-12T10:24:35;38.40;32.10
38020;DHT22;23829;51.350;17.286;2023-09-12T10:27:03;38.30;32.90
38020;DHT22;23829;51.350;17.286;2023-09-12T10:29:31;38.20;31.00
38020;DHT22;23829;51.350;17.286;2023-09-12T10:31:58;38.10;32.00
38020;DHT22;23829;51.350;17.286;2023-09-12T10:34:29;38.00;32.70
38020;DHT22;23829;51.350;17.286;2023-09-12T10:36:58;38.00;32.90
38020;DHT22;23829;51.350;17.286;2023-09-12T10:39:27;37.80;33.60
38020;DHT22;23829;51.350;17.286;2023-09-12T10:41:55;37.90;33.70
38020;DHT22;23829;51.350;17.286;2023-09-12T10:44:22;38.10;31.80
38020;DHT22;23829;51.350;17.286;2023-09-12T10:46:50;38.20;32.20
38020;DHT22;23829;51.350;17.286;2023-09-12T10:49:17;38.40;31.90
38020;DHT22;23829;51.350;17.286;2023-09-12T10:51:46;38.30;32.40
38020;DHT22;23829;51.350;17.286;2023-09-12T10:54:35;38.30;31.40
38020;DHT22;23829;51.350;17.286;2023-09-12T10:59:29;38.30;32.60
38020;DHT22;23829;51.350;17.286;2023-09-12T11:02:27;38.00;31.40
38020;DHT22;23829;51.350;17.286;2023-09-12T11:04:54;38.00;32.30
38020;DHT22;23829;51.350;17.286;2023-09-12T11:07:31;38.00;32.20
38020;DHT22;23829;51.350;17.286;2023-09-12T11:12:50;38.20;31.00
38020;DHT22;23829;51.350;17.286;2023-09-12T11:15:17;38.20;31.00
38020;DHT22;23829;51.350;17.286;2023-09-12T11:20:50;37.90;32.40
38020;DHT22;23829;51.350;17.286;2023-09-12T11:23:19;37.90;33.30
38020;DHT22;23829;51.350;17.286;2023-09-12T11:25:45;38.30;29.80
38020;DHT22;23829;51.350;17.286;2023-09-12T11:28:12;38.70;30.00
38020;DHT22;23829;51.350;17.286;2023-09-12T11:30:55;39.00;29.50
38020;DHT22;23829;51.350;17.286;2023-09-12T11:33:24;39.10;29.30
38020;DHT22;23829;51.350;17.286;2023-09-12T11:35:53;38.80;30.40
38020;DHT22;23829;51.350;17.286;2023-09-12T11:38:28;38.70;30.50
38020;DHT22;23829;51.350;17.286;2023-09-12T11:40:55;38.50;31.10
38020;DHT22;23829;51.350;17.286;2023-09-12T11:43:23;39.10;29.30
38020;DHT22;23829;51.350;17.286;2023-09-12T11:45:50;39.20;29.40
38020;DHT22;23829;51.350;17.286;2023-09-12T11:48:20;39.00;29.70
38020;DHT22;23829;51.350;17.286;2023-09-12T11:50:54;39.00;29.10
38020;DHT22;23829;51.350;17.286;2023-09-12T11:53:23;38.90;29.50
38020;DHT22;23829;51.350;17.286;2023-09-12T11:55:59;39.10;29.50
38020;DHT22;23829;51.350;17.286;2023-09-12T11:58:26;39.20;29.20
38020;DHT22;23829;51.350;17.286;2023-09-12T12:00:56;39.00;30.10
38020;DHT22;23829;51.350;17.286;2023-09-12T12:03:24;39.10;30.00
38020;DHT22;23829;51.350;17.286;2023-09-12T12:05:52;39.00;30.90
38020;DHT22;23829;51.350;17.286;2023-09-12T12:08:19;38.70;31.50
38020;DHT22;23829;51.350;17.286;2023-09-12T12:10:52;38.50;31.30
38020;DHT22;23829;51.350;17.286;2023-09-12T12:13:21;38.60;31.20
38020;DHT22;23829;51.350;17.286;2023-09-12T12:15:47;39.10;30.00
38020;DHT22;23829;51.350;17.286;2023-09-12T12:18:14;38.80;30.80
38020;DHT22;23829;51.350;17.286;2023-09-12T12:20:42;38.90;30.00
38020;DHT22;23829;51.350;17.286;2023-09-12T12:23:08;38.80;31.20
38020;DHT22;23829;51.350;17.286;2023-09-12T12:25:35;38.90;29.50
38020;DHT22;23829;51.350;17.286;2023-09-12T12:28:03;39.10;30.30
38020;DHT22;23829;51.350;17.286;2023-09-12T12:30:34;38.90;30.40
38020;DHT22;23829;51.350;17.286;2023-09-12T12:33:10;39.20;29.80
38020;DHT22;23829;51.350;17.286;2023-09-12T12:35:36;39.00;30.50
38020;DHT22;23829;51.350;17.286;2023-09-12T12:38:03;39.10;29.90
38020;DHT22;23829;51.350;17.286;2023-09-12T12:40:30;39.10;30.20
38020;DHT22;23829;51.350;17.286;2023-09-12T12:42:56;39.20;29.80
38020;DHT22;23829;51.350;17.286;2023-09-12T12:45:23;39.30;29.40
38020;DHT22;23829;51.350;17.286;2023-09-12T12:47:57;39.00;30.30
38020;DHT22;23829;51.350;17.286;2023-09-12T12:50:24;38.70;30.20
38020;DHT22;23829;51.350;17.286;2023-09-12T12:52:51;39.10;29.60
38020;DHT22;23829;51.350;17.286;2023-09-12T12:55:17;39.40;29.50
38020;DHT22;23829;51.350;17.286;2023-09-12T12:57:46;39.40;29.00
38020;DHT22;23829;51.350;17.286;2023-09-12T13:00:15;39.30;29.10
38020;DHT22;23829;51.350;17.286;2023-09-12T13:02:43;39.20;29.60
38020;DHT22;23829;51.350;17.286;2023-09-12T13:05:24;38.90;30.00
38020;DHT22;23829;51.350;17.286;2023-09-12T13:07:50;38.90;30.40
38020;DHT22;23829;51.350;17.286;2023-09-12T13:10:18;38.70;30.10
38020;DHT22;23829;51.350;17.286;2023-09-12T13:12:44;39.50;29.30
38020;DHT22;23829;51.350;17.286;2023-09-12T13:15:13;39.50;28.80
38020;DHT22;23829;51.350;17.286;2023-09-12T13:17:40;40.00;28.40
38020;DHT22;23829;51.350;17.286;2023-09-12T13:20:07;39.70;28.60
38020;DHT22;23829;51.350;17.286;2023-09-12T13:22:35;39.60;29.00
38020;DHT22;23829;51.350;17.286;2023-09-12T13:25:02;38.90;28.90
38020;DHT22;23829;51.350;17.286;2023-09-12T13:27:28;38.90;29.50
38020;DHT22;23829;51.350;17.286;2023-09-12T13:29:55;38.80;29.70
38020;DHT22;23829;51.350;17.286;2023-09-12T13:32:21;39.30;29.00
38020;DHT22;23829;51.350;17.286;2023-09-12T13:34:48;39.40;29.20
38020;DHT22;23829;51.350;17.286;2023-09-12T13:37:15;39.30;29.30
38020;DHT22;23829;51.350;17.286;2023-09-12T13:39:43;39.20;29.50
38020;DHT22;23829;51.350;17.286;2023-09-12T13:42:15;39.30;29.40
38020;DHT22;23829;51.350;17.286;2023-09-12T13:44:47;39.20;29.70
38020;DHT22;23829;51.350;17.286;2023-09-12T13:47:13;39.80;28.70
38020;DHT22;23829;51.350;17.286;2023-09-12T13:49:48;39.80;28.40
38020;DHT22;23829;51.350;17.286;2023-09-12T13:52:14;39.90;28.60
38020;DHT22;23829;51.350;17.286;2023-09-12T13:54:43;39.60;28.80
38020;DHT22;23829;51.350;17.286;2023-09-12T13:57:09;39.60;28.70
38020;DHT22;23829;51.350;17.286;2023-09-12T13:59:36;39.50;28.90
38020;DHT22;23829;51.350;17.286;2023-09-12T14:02:02;39.40;29.80
38020;DHT22;23829;51.350;17.286;2023-09-12T14:04:29;39.50;29.40
38020;DHT22;23829;51.350;17.286;2023-09-12T14:06:55;39.60;28.60
38020;DHT22;23829;51.350;17.286;2023-09-12T14:09:21;40.10;28.70
38020;DHT22;23829;51.350;17.286;2023-09-12T14:11:48;39.80;28.80
38020;DHT22;23829;51.350;17.286;2023-09-12T14:14:14;39.50;29.30
38020;DHT22;23829;51.350;17.286;2023-09-12T14:16:43;39.00;29.80
38020;DHT22;23829;51.350;17.286;2023-09-12T14:19:10;39.10;29.60
38020;DHT22;23829;51.350;17.286;2023-09-12T14:21:37;39.30;29.60
38020;DHT22;23829;51.350;17.286;2023-09-12T14:24:05;39.50;29.10
38020;DHT22;23829;51.350;17.286;2023-09-12T14:26:31;39.10;30.00
38020;DHT22;23829;51.350;17.286;2023-09-12T14:28:57;38.90;29.50
38020;DHT22;23829;51.350;17.286;2023-09-12T14:31:23;39.40;29.80
38020;DHT22;23829;51.350;17.286;2023-09-12T14:33:50;39.60;29.40
38020;DHT22;23829;51.350;17.286;2023-09-12T14:36:18;38.90;29.40
38020;DHT22;23829;51.350;17.286;2023-09-12T14:38:45;39.10;29.70
38020;DHT22;23829;51.350;17.286;2023-09-12T14:41:12;38.80;29.70
38020;DHT22;23829;51.350;17.286;2023-09-12T14:43:40;38.90;29.50
38020;DHT22;23829;51.350;17.286;2023-09-12T14:46:06;38.80;29.80
38020;DHT22;23829;51.350;17.286;2023-09-12T14:48:34;38.80;29.90
38020;DHT22;23829;51.350;17.286;2023-09-12T14:51:02;39.10;29.80
38020;DHT22;23829;51.350;17.286;2023-09-12T14:53:28;39.00;30.70
38020;DHT22;23829;51.350;17.286;2023-09-12T14:55:54;39.30;31.20
38020;DHT22;23829;51.350;17.286;2023-09-12T14:58:21;39.20;30.60
38020;DHT22;23829;51.350;17.286;2023-09-12T15:00:47;39.40;29.50
38020;DHT22;23829;51.350;17.286;2023-09-12T15:03:14;39.50;29.60
38020;DHT22;23829;51.350;17.286;2023-09-12T15:05:40;39.40;30.00
38020;DHT22;23829;51.350;17.286;2023-09-12T15:08:06;39.10;30.00
38020;DHT22;23829;51.350;17.286;2023-09-12T15:10:33;38.70;30.00
38020;DHT22;23829;51.350;17.286;2023-09-12T15:12:59;38.40;30.30
38020;DHT22;23829;51.350;17.286;2023-09-12T15:15:25;38.60;30.60
38020;DHT22;23829;51.350;17.286;2023-09-12T15:17:52;38.60;30.80
38020;DHT22;23829;51.350;17.286;2023-09-12T15:20:18;38.80;31.60
38020;DHT22;23829;51.350;17.286;2023-09-12T15:22:45;38.80;31.60
38020;DHT22;23829;51.350;17.286;2023-09-12T15:25:11;38.90;31.60
38020;DHT22;23829;51.350;17.286;2023-09-12T15:27:37;38.90;33.60
38020;DHT22;23829;51.350;17.286;2023-09-12T15:30:04;38.90;32.40
38020;DHT22;23829;51.350;17.286;2023-09-12T15:32:31;38.80;33.00
38020;DHT22;23829;51.350;17.286;2023-09-12T15:34:57;38.70;33.90